Viking Sun — LAYT7 — position and weather

sailwx.info

Track history (hours):
 
Tides and Currents Weather Stations Pressure Air Temp Water Temp Dewpoint Dewpoint Depression Visibility Wind Speed Wind Dir Waves Ship Positions

Viking Sun

Last reported at 2020-Apr-04 23:28 UTC. Time now 2020-Apr-05 07:14 UTC.
Position N 34°02' E 024°04'.

Length 228 m; draft 7 m.

Type: Passenger vessel. MMSI: 257179000.

Date/timePositionNaut miles runAvg speedWind from/ knotsBaromVisibWave heightAir tempDewpointWater temp
2020-Apr-04 23:28N 34°02' E 024°04'1811.3
2020-Apr-04 21:53N 33°57' E 024°25'511.7
2020-Apr-04 21:30N 33°55' E 024°30'1811.9
2020-Apr-04 19:56N 33°50' E 024°52'612.3
2020-Apr-04 19:25N 33°48' E 024°59'3012.3
2020-Apr-04 17:00N 33°40' E 025°34'1312.6
2020-Apr-04 16:00N 33°37' E 025°48'1312.9
2020-Apr-04 15:00N 33°33' E 026°03'713.3
2020-Apr-04 14:30N 33°31' E 026°11'813.3
2020-Apr-04 13:55N 33°29' E 026°20'613.3
2020-Apr-04 13:29N 33°27' E 026°26'2713.4
2020-Apr-04 11:30N 33°19' E 026°56'  
2020-Mar-26 03:28N 25°27' E 055°09'  
Track history (hours):
 
Tides and Currents Weather Stations Pressure Air Temp Water Temp Dewpoint Dewpoint Depression Visibility Wind Speed Wind Dir Waves Ship Positions

Viking Sun

Last reported at 2020-Apr-04 23:28 UTC. Time now 2020-Apr-05 07:14 UTC.
Position N 34°02' E 024°04'.

Length 228 m; draft 7 m.

Type: Passenger vessel. MMSI: 257179000.

Date/timePositionNaut miles runAvg speedWind from/ knotsBaromVisibWave heightAir tempDewpointWater temp
2020-Apr-04 23:28N 34°02' E 024°04'1811.3
2020-Apr-04 21:53N 33°57' E 024°25'511.7
2020-Apr-04 21:30N 33°55' E 024°30'1811.9
2020-Apr-04 19:56N 33°50' E 024°52'612.3
2020-Apr-04 19:25N 33°48' E 024°59'3012.3
2020-Apr-04 17:00N 33°40' E 025°34'1312.6
2020-Apr-04 16:00N 33°37' E 025°48'1312.9
2020-Apr-04 15:00N 33°33' E 026°03'713.3
2020-Apr-04 14:30N 33°31' E 026°11'813.3
2020-Apr-04 13:55N 33°29' E 026°20'613.3
2020-Apr-04 13:29N 33°27' E 026°26'2713.4
2020-Apr-04 11:30N 33°19' E 026°56'  
2020-Mar-26 03:28N 25°27' E 055°09'  

Dump ship's entire track history